createdAt,value
2019-03-04T00:01:46.327Z,1.30
2019-03-04T00:04:37.812Z,1.20
2019-03-04T00:07:29.185Z,1.50
2019-03-04T00:10:20.511Z,1.50
2019-03-04T00:13:12.188Z,1.30
2019-03-04T00:16:03.891Z,1.20
2019-03-04T00:18:55.462Z,1.33
2019-03-04T00:21:46.823Z,1.30
2019-03-04T00:24:38.446Z,1.30
2019-03-04T00:27:30.960Z,1.10
2019-03-04T00:30:22.323Z,1.13
2019-03-04T00:33:14.150Z,1.40
2019-03-04T00:36:05.847Z,1.30
2019-03-04T00:38:57.435Z,1.50
2019-03-04T00:41:49.075Z,1.73
2019-03-04T00:44:40.448Z,1.30
2019-03-04T00:47:31.836Z,1.10
2019-03-04T00:50:23.443Z,1.33
2019-03-04T00:53:14.759Z,1.40
2019-03-04T00:56:07.020Z,1.40
2019-03-04T00:58:58.374Z,1.03
2019-03-04T01:01:50.064Z,1.10
2019-03-04T01:04:41.660Z,1.27
2019-03-04T01:07:33.353Z,1.30
2019-03-04T01:10:24.997Z,1.00
2019-03-04T01:13:16.649Z,1.30
2019-03-04T01:16:08.067Z,1.20
2019-03-04T01:18:59.506Z,1.30
2019-03-04T01:21:51.342Z,1.40
2019-03-04T01:24:43.503Z,1.37
2019-03-04T01:27:35.204Z,1.10
2019-03-04T01:30:26.957Z,0.83
2019-03-04T01:33:18.406Z,1.20
2019-03-04T01:36:10.824Z,1.20
2019-03-04T01:39:02.362Z,1.10
2019-03-04T01:41:55.671Z,1.00
2019-03-04T01:44:47.250Z,0.97
2019-03-04T01:47:39.572Z,0.90
2019-03-04T01:50:31.076Z,0.80
2019-03-04T01:53:22.508Z,1.00
2019-03-04T01:56:14.174Z,0.83
2019-03-04T01:59:06.007Z,0.90
2019-03-04T02:01:58.434Z,0.93
2019-03-04T02:04:50.865Z,1.07
2019-03-04T02:07:42.294Z,0.60
2019-03-04T02:10:33.716Z,0.80
2019-03-04T02:13:25.357Z,1.03
2019-03-04T02:16:16.796Z,1.10
2019-03-04T13:29:25.184Z,1.83
2019-03-04T13:32:17.006Z,1.83
2019-03-04T13:35:11.567Z,1.40
2019-03-04T13:38:03.446Z,1.33
2019-03-04T13:40:54.892Z,1.60
2019-03-04T13:43:47.521Z,1.43
2019-03-04T13:46:39.867Z,1.90
2019-03-04T13:49:31.190Z,1.47
2019-03-04T13:52:22.811Z,1.27
2019-03-04T13:55:16.339Z,1.60
2019-03-04T13:58:07.699Z,1.30
2019-03-04T14:00:59.521Z,1.40
2019-03-04T14:03:50.927Z,1.53
2019-03-04T14:06:42.578Z,1.57
2019-03-04T14:09:34.560Z,1.57
2019-03-04T14:12:26.239Z,1.43
2019-03-04T14:15:22.367Z,1.63
2019-03-04T14:18:13.796Z,1.97
2019-03-04T14:21:05.211Z,1.40
2019-03-04T14:23:56.615Z,1.80
2019-03-04T14:26:48.124Z,1.90
2019-03-04T14:29:39.774Z,1.83
2019-03-04T14:32:31.375Z,1.83
2019-03-04T14:35:22.809Z,1.67
2019-03-04T14:38:14.330Z,1.60
2019-03-04T14:41:06.892Z,1.80
2019-03-04T14:43:58.278Z,2.50
2019-03-04T14:46:49.558Z,2.20
2019-03-04T14:49:45.009Z,1.90
2019-03-04T14:52:36.784Z,2.67
2019-03-04T14:55:28.529Z,2.20
2019-03-04T14:58:20.941Z,2.10
2019-03-04T15:01:13.101Z,2.57
2019-03-04T15:04:04.718Z,2.30
2019-03-04T15:06:55.967Z,2.63
2019-03-04T15:09:49.538Z,3.03
2019-03-04T15:12:40.441Z,4.20
2019-03-04T15:15:32.279Z,3.73
2019-03-04T15:18:23.754Z,1.90
2019-03-04T15:21:16.349Z,2.00
2019-03-04T15:24:08.050Z,1.73
2019-03-04T15:26:59.612Z,1.97
2019-03-04T15:29:51.785Z,2.07
2019-03-04T15:32:43.275Z,2.20
2019-03-04T15:35:35.085Z,1.77
2019-03-04T15:38:26.668Z,2.40
2019-03-04T15:41:18.545Z,2.13
2019-03-04T15:44:09.876Z,1.60
2019-03-04T15:47:01.322Z,2.00
2019-03-04T15:49:52.997Z,2.53
2019-03-04T15:52:45.341Z,2.27
2019-03-04T15:55:37.140Z,2.13
2019-03-04T15:58:28.867Z,2.00
2019-03-04T16:01:20.303Z,1.97
2019-03-04T16:04:11.803Z,1.63
2019-03-04T16:07:03.104Z,1.80
2019-03-04T16:09:55.040Z,2.63
2019-03-04T16:12:47.151Z,1.80
2019-03-04T16:15:41.158Z,2.07
2019-03-04T16:18:33.379Z,2.27
2019-03-04T16:21:25.000Z,2.33
2019-03-04T16:24:16.454Z,1.90
2019-03-04T16:27:15.247Z,2.40
2019-03-04T16:30:13.585Z,2.07
2019-03-04T16:33:04.934Z,2.00
2019-03-04T16:35:56.335Z,2.37
2019-03-04T16:38:47.614Z,1.77
2019-03-04T16:41:39.758Z,2.33
2019-03-04T16:44:31.363Z,2.07
2019-03-04T16:47:22.815Z,1.63
2019-03-04T16:50:15.109Z,1.63
2019-03-04T16:53:07.114Z,1.30
2019-03-04T16:55:58.450Z,1.30
2019-03-04T16:58:49.774Z,1.30
2019-03-04T17:01:42.024Z,1.00
2019-03-04T17:04:33.408Z,1.40
2019-03-04T17:07:25.106Z,1.93
2019-03-04T17:10:19.099Z,1.47
2019-03-04T17:13:10.564Z,1.43
2019-03-04T17:16:03.722Z,1.00
2019-03-04T17:18:55.822Z,1.40
2019-03-04T17:21:47.246Z,0.70
2019-03-04T17:24:39.653Z,0.70
2019-03-04T17:27:31.775Z,0.50
2019-03-04T17:30:23.340Z,0.80
2019-03-04T17:33:15.002Z,0.50
2019-03-04T17:36:06.634Z,0.50
2019-03-04T17:38:58.279Z,0.60
2019-03-04T17:41:49.786Z,0.57
2019-03-04T17:44:42.068Z,0.90
2019-03-04T17:47:33.715Z,0.67
2019-03-04T17:50:31.202Z,0.70
2019-03-04T17:53:23.741Z,1.07
2019-03-04T17:56:15.334Z,0.80
2019-03-04T17:59:06.597Z,0.60
2019-03-04T18:01:57.887Z,0.67
2019-03-04T18:04:50.026Z,0.70
2019-03-04T18:07:42.309Z,0.90
2019-03-04T18:10:33.663Z,0.90
2019-03-04T18:13:25.257Z,0.90
2019-03-04T18:16:17.282Z,1.00
2019-03-04T18:19:08.856Z,0.60
2019-03-04T18:22:01.085Z,0.80
2019-03-04T18:24:53.857Z,0.83
2019-03-04T18:27:52.606Z,0.73
2019-03-04T18:31:19.733Z,0.80
2019-03-04T18:35:05.190Z,1.17
2019-03-04T18:38:59.695Z,0.93
2019-03-04T18:42:36.084Z,1.00
2019-03-04T18:46:15.462Z,1.20
2019-03-04T18:49:06.887Z,1.20
2019-03-04T18:51:58.311Z,3.17
2019-03-04T18:54:50.580Z,7.07
2019-03-04T18:57:42.749Z,1.77
2019-03-04T19:00:34.087Z,1.20
2019-03-04T19:03:25.877Z,1.43
2019-03-04T19:06:17.424Z,1.17
2019-03-04T19:09:10.733Z,1.10
2019-03-04T19:12:02.208Z,1.73
2019-03-04T19:14:54.572Z,1.43
2019-03-04T19:17:46.145Z,1.40
2019-03-04T19:20:37.871Z,1.60
2019-03-04T19:23:29.623Z,1.73
2019-03-04T19:26:21.208Z,1.60
2019-03-04T19:29:13.138Z,1.90
2019-03-04T19:32:05.537Z,1.73
2019-03-04T19:34:57.192Z,2.10
2019-03-04T19:37:48.874Z,1.97
2019-03-04T19:40:40.345Z,2.27
2019-03-04T19:43:33.278Z,2.00
2019-03-04T19:46:24.837Z,2.13
2019-03-04T19:49:16.465Z,1.83
2019-03-04T19:52:08.606Z,2.57
2019-03-04T19:55:00.424Z,1.83
2019-03-04T19:57:51.885Z,2.30
2019-03-04T20:00:43.388Z,2.07
2019-03-04T20:03:36.409Z,2.03
2019-03-04T20:06:27.640Z,2.50
2019-03-04T20:09:19.263Z,2.30
2019-03-04T20:12:10.754Z,3.10
2019-03-04T20:15:02.964Z,2.57
2019-03-04T20:17:56.477Z,2.57
2019-03-04T20:20:47.801Z,2.40
2019-03-04T20:23:39.407Z,2.70
2019-03-04T20:26:30.744Z,2.93
2019-03-04T20:29:23.040Z,2.77
2019-03-04T20:32:14.376Z,2.40
2019-03-04T20:35:07.193Z,2.90
2019-03-04T20:38:00.578Z,2.20
2019-03-04T20:40:52.195Z,3.07
2019-03-04T20:43:43.818Z,2.00
2019-03-04T20:46:35.102Z,2.37
2019-03-04T20:49:27.320Z,1.90
2019-03-04T20:52:18.436Z,2.37
2019-03-04T20:55:10.411Z,2.30
2019-03-04T20:58:02.597Z,2.20
2019-03-04T21:00:54.248Z,2.57
2019-03-04T21:03:45.740Z,2.73
2019-03-04T21:06:38.059Z,1.90
2019-03-04T21:09:29.666Z,2.20
2019-03-04T21:12:21.669Z,2.10
2019-03-04T21:15:13.994Z,2.13
2019-03-04T21:18:06.198Z,2.53
2019-03-04T21:20:57.944Z,2.13
2019-03-04T21:23:50.268Z,2.23
2019-03-04T21:26:47.537Z,2.70
2019-03-04T21:30:20.043Z,2.20
2019-03-04T21:34:07.713Z,2.77
2019-03-04T21:37:16.428Z,2.60
2019-03-04T21:40:32.291Z,3.10
2019-03-04T21:43:35.124Z,2.70
2019-03-04T21:47:19.740Z,2.77
2019-03-04T21:50:14.931Z,2.37
2019-03-04T21:53:17.332Z,3.97
2019-03-04T21:57:19.995Z,2.07
2019-03-04T22:00:21.953Z,2.50
2019-03-04T22:03:24.276Z,2.17
2019-03-04T22:06:16.309Z,2.13
2019-03-04T22:09:08.379Z,1.93
2019-03-04T22:12:01.777Z,1.93
2019-03-04T22:14:53.196Z,1.93
2019-03-04T22:17:44.689Z,1.93
2019-03-04T22:20:36.831Z,2.07
2019-03-04T22:23:28.550Z,1.40
2019-03-04T22:26:21.204Z,1.50
2019-03-04T22:29:12.904Z,2.53
2019-03-04T22:32:04.817Z,1.60
2019-03-04T22:34:56.275Z,1.60
2019-03-04T22:37:47.984Z,1.43
2019-03-04T22:40:40.860Z,1.40
2019-03-04T22:43:33.239Z,1.13
2019-03-04T22:46:24.627Z,1.07
2019-03-04T22:49:15.995Z,1.20
2019-03-04T22:52:07.495Z,1.30
2019-03-04T22:54:58.807Z,1.83
2019-03-04T22:57:50.490Z,1.20
2019-03-04T23:01:41.818Z,1.40
2019-03-04T23:05:09.713Z,1.10
2019-03-04T23:08:01.627Z,1.60
2019-03-04T23:10:53.375Z,1.70
2019-03-04T23:14:00.250Z,1.70
2019-03-04T23:16:51.626Z,2.43
2019-03-04T23:19:43.182Z,1.83
2019-03-04T23:22:34.708Z,1.73
2019-03-04T23:25:27.043Z,1.80
2019-03-04T23:28:19.505Z,1.43
2019-03-04T23:31:10.804Z,2.13
2019-03-04T23:34:02.180Z,1.90
2019-03-04T23:36:53.475Z,1.40
2019-03-04T23:39:44.726Z,2.07
2019-03-04T23:42:36.479Z,1.83
2019-03-04T23:45:27.848Z,1.93
2019-03-04T23:48:20.144Z,1.83
2019-03-04T23:51:11.569Z,2.17
2019-03-04T23:54:03.009Z,1.63
2019-03-04T23:56:56.305Z,1.77
2019-03-04T23:59:47.701Z,1.90
